createdAt,value
2023-04-29T00:01:33.445Z,17.60
2023-04-29T00:04:00.649Z,17.90
2023-04-29T00:06:28.470Z,20.70
2023-04-29T00:08:56.103Z,17.47
2023-04-29T00:11:23.141Z,15.40
2023-04-29T00:13:50.204Z,18.03
2023-04-29T00:16:17.649Z,15.57
2023-04-29T00:18:44.743Z,17.03
2023-04-29T00:21:12.044Z,18.60
2023-04-29T00:23:39.450Z,17.07
2023-04-29T00:26:06.544Z,16.70
2023-04-29T00:28:33.830Z,18.13
2023-04-29T00:31:01.561Z,17.20
2023-04-29T00:33:28.679Z,18.83
2023-04-29T00:35:55.927Z,16.20
2023-04-29T00:38:23.315Z,19.13
2023-04-29T00:40:50.506Z,18.80
2023-04-29T00:43:17.560Z,18.20
2023-04-29T00:45:45.924Z,18.67
2023-04-29T00:48:15.176Z,18.03
2023-04-29T00:50:42.442Z,15.97
2023-04-29T00:53:15.821Z,17.67
2023-04-29T00:55:43.435Z,19.17
2023-04-29T00:58:10.959Z,18.37
2023-04-29T01:00:39.244Z,17.17
2023-04-29T01:03:06.497Z,17.63
2023-04-29T01:05:34.218Z,17.97
2023-04-29T01:08:20.299Z,18.63
2023-04-29T01:11:06.962Z,17.33
2023-04-29T01:13:56.191Z,21.83
2023-04-29T01:16:23.350Z,21.43
2023-04-29T01:18:56.693Z,20.00
2023-04-29T01:21:26.025Z,20.77
2023-04-29T01:23:56.169Z,20.67
2023-04-29T01:26:24.238Z,20.57
2023-04-29T01:28:54.567Z,20.67
2023-04-29T01:31:42.806Z,17.37
2023-04-29T01:34:11.257Z,19.80
2023-04-29T01:36:57.376Z,21.00
2023-04-29T01:39:27.322Z,17.27
2023-04-29T01:42:11.958Z,18.87
2023-04-29T01:44:39.189Z,22.13
2023-04-29T01:47:06.860Z,20.70
2023-04-29T01:49:37.642Z,20.97
2023-04-29T01:52:05.193Z,20.93
2023-04-29T01:54:32.281Z,25.70
2023-04-29T01:56:59.366Z,24.20
2023-04-29T01:59:26.448Z,19.17
2023-04-29T02:01:53.549Z,22.07
2023-04-29T02:04:21.067Z,24.33
2023-04-29T02:06:48.170Z,24.67
2023-04-29T02:09:15.231Z,20.93
2023-04-29T02:11:42.787Z,20.07
2023-04-29T02:14:09.818Z,25.30
2023-04-29T02:16:36.998Z,27.87
2023-04-29T02:19:04.429Z,23.57
2023-04-29T02:21:31.982Z,20.87
2023-04-29T02:23:59.062Z,25.23
2023-04-29T02:26:26.625Z,23.97
2023-04-29T02:28:53.699Z,19.80
2023-04-29T02:31:20.811Z,24.30
2023-04-29T02:33:48.278Z,26.77
2023-04-29T02:36:15.735Z,22.87
2023-04-29T02:38:42.779Z,27.63
2023-04-29T02:41:10.204Z,25.33
2023-04-29T02:43:37.277Z,25.67
2023-04-29T02:46:04.719Z,26.70
2023-04-29T02:48:32.226Z,24.10
2023-04-29T02:50:59.317Z,27.37
2023-04-29T02:53:26.831Z,24.87
2023-04-29T02:55:54.287Z,22.47
2023-04-29T02:58:21.340Z,25.13
2023-04-29T03:00:48.393Z,23.40
2023-04-29T03:03:15.992Z,22.37
2023-04-29T03:05:43.412Z,22.60
2023-04-29T03:08:10.462Z,23.90
2023-04-29T03:10:39.825Z,22.17
2023-04-29T03:13:08.259Z,26.07
2023-04-29T03:15:35.411Z,19.87
2023-04-29T03:18:04.699Z,25.33
2023-04-29T03:20:32.648Z,25.17
2023-04-29T03:23:00.899Z,25.63
2023-04-29T03:25:28.943Z,19.13
2023-04-29T03:27:56.017Z,22.47
2023-04-29T03:30:23.101Z,19.80
2023-04-29T03:32:50.552Z,23.47
2023-04-29T03:35:17.808Z,18.63
2023-04-29T03:37:44.952Z,17.80
2023-04-29T03:40:12.909Z,16.73
2023-04-29T03:42:39.982Z,15.97
2023-04-29T03:45:07.418Z,16.03
2023-04-29T03:47:34.551Z,15.17
2023-04-29T03:50:02.221Z,15.60
2023-04-29T03:52:29.387Z,14.20
2023-04-29T03:54:56.484Z,12.27
2023-04-29T03:57:23.517Z,13.93
2023-04-29T03:59:51.035Z,14.37
2023-04-29T04:02:20.453Z,13.07
2023-04-29T04:04:47.972Z,12.43
2023-04-29T04:07:15.109Z,10.90
2023-04-29T04:09:42.612Z,12.60
2023-04-29T04:12:09.759Z,13.07
2023-04-29T04:14:36.792Z,10.80
2023-04-29T04:17:04.405Z,13.07
2023-04-29T04:19:32.755Z,11.43
2023-04-29T04:21:59.909Z,10.17
2023-04-29T04:24:27.318Z,12.83
2023-04-29T04:26:54.353Z,9.30
2023-04-29T04:29:21.395Z,9.47
2023-04-29T04:31:48.511Z,8.10
2023-04-29T04:34:15.637Z,9.33
2023-04-29T04:36:42.782Z,9.80
2023-04-29T04:39:10.200Z,7.63
2023-04-29T04:41:37.230Z,9.17
2023-04-29T04:44:04.653Z,6.80
2023-04-29T04:46:31.797Z,7.20
2023-04-29T04:48:58.859Z,8.07
2023-04-29T04:51:25.937Z,7.27
2023-04-29T04:53:53.329Z,7.17
2023-04-29T04:56:20.491Z,7.20
2023-04-29T04:58:47.534Z,9.00
2023-04-29T05:01:14.982Z,8.33
2023-04-29T05:03:42.167Z,8.37
2023-04-29T05:06:09.306Z,7.27
2023-04-29T05:08:36.372Z,6.70
2023-04-29T05:11:03.464Z,6.67
2023-04-29T05:13:30.496Z,5.23
2023-04-29T05:15:57.887Z,4.50
2023-04-29T05:18:24.933Z,7.43
2023-04-29T05:20:51.997Z,6.10
2023-04-29T05:23:19.592Z,8.17
2023-04-29T05:25:46.763Z,5.97
2023-04-29T05:28:13.842Z,6.80
2023-04-29T05:30:41.020Z,6.43
2023-04-29T05:33:08.121Z,7.07
2023-04-29T05:35:35.309Z,6.50
2023-04-29T05:38:02.687Z,6.43
2023-04-29T05:40:29.730Z,7.63
2023-04-29T05:42:56.771Z,6.53
2023-04-29T05:45:24.174Z,6.13
2023-04-29T05:47:51.456Z,7.50
2023-04-29T05:50:18.628Z,5.23
2023-04-29T05:52:46.018Z,5.13
2023-04-29T05:55:13.152Z,7.20
2023-04-29T05:57:40.358Z,5.90
2023-04-29T06:00:07.945Z,6.27
2023-04-29T06:02:39.460Z,7.60
2023-04-29T06:05:11.685Z,6.20
2023-04-29T06:07:39.925Z,6.23
2023-04-29T06:10:07.520Z,5.50
2023-04-29T06:12:34.722Z,6.97
2023-04-29T06:15:01.797Z,5.33
2023-04-29T06:17:29.421Z,6.13
2023-04-29T06:19:56.876Z,7.90
2023-04-29T06:22:23.997Z,6.47
2023-04-29T06:24:51.139Z,8.40
2023-04-29T06:27:18.518Z,6.97
2023-04-29T06:29:45.554Z,7.77
2023-04-29T06:32:13.917Z,8.47
2023-04-29T06:34:41.331Z,9.20
2023-04-29T06:37:08.372Z,10.30
2023-04-29T06:39:35.507Z,9.50
2023-04-29T06:42:03.566Z,9.57
2023-04-29T06:44:30.987Z,10.30
2023-04-29T06:46:58.392Z,11.87
2023-04-29T06:49:25.536Z,11.20
2023-04-29T06:51:52.559Z,10.77
2023-04-29T06:54:19.596Z,11.93
2023-04-29T06:56:47.194Z,11.57
2023-04-29T06:59:15.206Z,10.57
2023-04-29T07:01:44.569Z,11.70
2023-04-29T07:04:13.090Z,11.97
2023-04-29T07:06:40.118Z,12.00
2023-04-29T07:09:07.365Z,10.23
2023-04-29T07:11:34.452Z,11.97
2023-04-29T07:14:01.478Z,12.77
2023-04-29T07:16:28.563Z,10.37
2023-04-29T07:18:55.986Z,10.53
2023-04-29T07:21:23.086Z,10.60
2023-04-29T07:23:50.335Z,11.67
2023-04-29T07:26:18.547Z,11.17
2023-04-29T07:28:46.187Z,12.10
2023-04-29T07:31:14.282Z,11.27
2023-04-29T07:33:41.833Z,11.53
2023-04-29T07:36:09.044Z,11.13
2023-04-29T07:38:36.914Z,11.67
2023-04-29T07:41:07.191Z,12.10
2023-04-29T07:43:34.305Z,12.40
2023-04-29T07:46:01.522Z,11.13
2023-04-29T07:48:29.081Z,11.20
2023-04-29T07:50:56.129Z,11.63
2023-04-29T07:53:23.233Z,11.10
2023-04-29T07:55:50.911Z,11.87
2023-04-29T07:58:17.965Z,11.23
2023-04-29T08:00:45.056Z,11.27
2023-04-29T08:03:13.150Z,10.93
2023-04-29T08:05:40.814Z,11.33
2023-04-29T08:08:07.883Z,10.87
2023-04-29T08:10:41.270Z,9.43
2023-04-29T08:13:08.324Z,8.93
2023-04-29T08:15:35.421Z,9.57
2023-04-29T08:18:02.923Z,9.47
2023-04-29T08:20:30.400Z,9.07
2023-04-29T08:22:59.504Z,9.30
2023-04-29T08:25:27.364Z,8.23
2023-04-29T08:27:54.405Z,8.97
2023-04-29T08:30:21.593Z,8.50
2023-04-29T08:32:48.889Z,8.53
2023-04-29T08:35:15.986Z,7.77
2023-04-29T08:37:43.329Z,7.10
2023-04-29T08:40:10.888Z,6.83
2023-04-29T08:42:38.164Z,7.53
2023-04-29T08:45:06.148Z,8.00
2023-04-29T08:47:34.808Z,8.20
2023-04-29T08:50:05.923Z,7.30
2023-04-29T08:52:33.473Z,6.77
2023-04-29T08:55:03.015Z,8.60
2023-04-29T08:57:31.556Z,7.23
2023-04-29T09:00:00.916Z,7.17
2023-04-29T09:02:28.525Z,7.90
2023-04-29T09:05:06.362Z,7.47
2023-04-29T09:07:34.213Z,8.83
2023-04-29T09:10:02.427Z,8.87
2023-04-29T09:12:30.390Z,8.50
2023-04-29T09:14:59.815Z,8.90
2023-04-29T09:17:46.688Z,7.20
2023-04-29T09:20:23.278Z,6.40
2023-04-29T09:22:51.174Z,6.63
2023-04-29T09:25:18.597Z,7.23
2023-04-29T09:27:46.106Z,7.87
2023-04-29T09:30:13.818Z,6.90
2023-04-29T09:32:41.003Z,7.27
2023-04-29T09:35:27.703Z,7.30
2023-04-29T09:38:08.721Z,7.50
2023-04-29T09:40:50.052Z,8.10
2023-04-29T09:43:18.540Z,7.47
2023-04-29T09:45:47.271Z,7.40
2023-04-29T09:48:15.579Z,9.83
2023-04-29T09:50:44.157Z,7.03
2023-04-29T09:53:12.064Z,8.13
2023-04-29T09:55:59.208Z,8.50
2023-04-29T09:58:40.627Z,7.60
2023-04-29T10:01:08.145Z,7.97
2023-04-29T10:03:36.586Z,7.23
2023-04-29T10:06:05.057Z,7.70
2023-04-29T10:08:32.843Z,7.30
2023-04-29T10:11:01.282Z,7.50
2023-04-29T10:13:30.257Z,7.17
2023-04-29T10:16:15.994Z,7.27
2023-04-29T10:18:45.789Z,7.67
2023-04-29T10:21:14.438Z,6.50
2023-04-29T10:23:42.996Z,8.00
2023-04-29T10:26:13.005Z,8.93
2023-04-29T10:28:41.082Z,9.53
2023-04-29T10:31:08.351Z,8.27
2023-04-29T10:33:36.844Z,7.40
2023-04-29T10:36:04.513Z,8.17
2023-04-29T10:38:38.010Z,9.23
2023-04-29T10:41:09.794Z,9.50
2023-04-29T10:43:37.151Z,9.93
2023-04-29T10:46:27.137Z,10.27
2023-04-29T10:48:59.492Z,9.73
2023-04-29T10:51:34.080Z,9.27
2023-04-29T10:54:04.024Z,10.13
2023-04-29T10:56:38.186Z,9.63
2023-04-29T10:59:05.283Z,11.60
2023-04-29T11:01:41.746Z,8.80
2023-04-29T11:04:09.749Z,11.07
2023-04-29T11:06:36.803Z,7.83
2023-04-29T11:09:16.491Z,8.90
2023-04-29T11:11:44.516Z,8.00
2023-04-29T11:14:12.079Z,9.03
2023-04-29T11:16:39.752Z,9.10
2023-04-29T11:19:06.897Z,8.70
2023-04-29T11:21:37.395Z,9.37
2023-04-29T11:24:08.175Z,9.40
2023-04-29T11:26:36.067Z,9.40
2023-04-29T11:29:03.119Z,8.67
2023-04-29T11:31:34.384Z,7.57
2023-04-29T11:34:01.561Z,9.80
2023-04-29T11:36:28.745Z,7.27
2023-04-29T11:38:56.198Z,7.57
2023-04-29T11:41:23.740Z,6.80
2023-04-29T11:44:01.475Z,6.97
2023-04-29T11:46:31.222Z,6.87
2023-04-29T11:48:59.913Z,6.53
2023-04-29T11:51:28.272Z,5.67
2023-04-29T11:53:55.647Z,5.03
2023-04-29T11:56:25.431Z,4.80
2023-04-29T11:59:01.481Z,4.40
2023-04-29T12:01:28.602Z,4.50
2023-04-29T12:04:00.033Z,6.37
2023-04-29T12:06:30.975Z,6.43
2023-04-29T12:09:01.574Z,4.73
2023-04-29T12:11:28.864Z,5.80
2023-04-29T12:13:56.932Z,4.87
2023-04-29T12:16:24.284Z,4.40
2023-04-29T12:18:54.574Z,4.50
2023-04-29T12:21:24.674Z,4.57
2023-04-29T12:23:52.506Z,7.23
2023-04-29T12:26:21.084Z,5.57
2023-04-29T12:28:49.910Z,5.67
2023-04-29T12:31:17.501Z,6.70
2023-04-29T12:33:44.623Z,6.07
2023-04-29T12:36:19.182Z,8.23
2023-04-29T12:38:46.698Z,6.27
2023-04-29T12:41:17.126Z,6.93
2023-04-29T12:43:44.828Z,8.27
2023-04-29T12:46:15.105Z,7.83
2023-04-29T12:48:43.670Z,7.53
2023-04-29T12:51:12.135Z,7.00
2023-04-29T12:53:39.816Z,6.53
2023-04-29T12:56:07.472Z,7.27
2023-04-29T12:58:35.296Z,6.77
2023-04-29T13:01:02.519Z,5.83
2023-04-29T13:03:29.787Z,7.33
2023-04-29T13:05:57.176Z,6.63
2023-04-29T13:08:24.343Z,5.57
2023-04-29T13:10:51.517Z,5.83
2023-04-29T13:13:18.953Z,6.60
2023-04-29T13:15:46.163Z,7.07
2023-04-29T13:18:13.247Z,6.80
2023-04-29T13:20:42.270Z,7.57
2023-04-29T13:23:09.982Z,8.43
2023-04-29T13:25:37.241Z,11.10
2023-04-29T13:28:05.810Z,8.20
2023-04-29T13:30:33.333Z,9.07
2023-04-29T13:33:08.754Z,9.67
2023-04-29T13:35:40.508Z,9.07
2023-04-29T13:38:08.003Z,10.70
2023-04-29T13:40:39.515Z,11.83
2023-04-29T13:43:10.655Z,10.77
2023-04-29T13:45:42.785Z,10.63
2023-04-29T13:48:22.893Z,12.53
2023-04-29T13:53:51.114Z,12.93
2023-04-29T13:57:11.088Z,13.97
2023-04-29T13:59:37.852Z,13.17
2023-04-29T14:04:21.404Z,13.97
2023-04-29T14:06:48.575Z,14.17
2023-04-29T14:09:16.054Z,14.57
2023-04-29T14:11:43.144Z,14.53
2023-04-29T14:14:10.362Z,13.33
2023-04-29T14:16:37.425Z,14.67
2023-04-29T14:19:07.662Z,16.20
2023-04-29T14:21:34.800Z,15.23
2023-04-29T14:24:03.255Z,15.47
2023-04-29T14:26:31.140Z,14.47
2023-04-29T14:29:01.249Z,15.70
2023-04-29T14:31:29.254Z,16.13
2023-04-29T14:33:57.340Z,14.47
2023-04-29T14:36:24.566Z,13.37
2023-04-29T14:38:51.725Z,14.40
2023-04-29T14:41:19.242Z,14.77
2023-04-29T14:43:46.528Z,13.37
2023-04-29T14:46:13.860Z,15.87
2023-04-29T14:48:41.312Z,14.03
2023-04-29T14:51:08.364Z,13.57
2023-04-29T14:53:35.486Z,14.10
2023-04-29T14:56:03.588Z,13.37
2023-04-29T14:58:30.813Z,14.03
2023-04-29T15:00:57.858Z,14.90
2023-04-29T15:03:25.401Z,16.77
2023-04-29T15:05:53.081Z,13.40
2023-04-29T15:08:20.453Z,13.10
2023-04-29T15:10:48.096Z,13.07
2023-04-29T15:13:15.370Z,14.37
2023-04-29T15:15:42.704Z,12.10
2023-04-29T15:18:10.225Z,13.20
2023-04-29T15:20:37.947Z,13.67
2023-04-29T15:23:05.957Z,15.20
2023-04-29T15:25:34.646Z,13.23
2023-04-29T15:28:04.453Z,14.63
2023-04-29T15:30:31.560Z,14.87
2023-04-29T15:32:59.123Z,15.07
2023-04-29T15:35:27.632Z,14.97
2023-04-29T15:37:54.788Z,14.93
2023-04-29T15:40:22.338Z,17.13
2023-04-29T15:42:49.405Z,21.50
2023-04-29T15:45:16.973Z,18.77
2023-04-29T15:47:44.161Z,13.73
2023-04-29T15:50:11.435Z,14.27
2023-04-29T15:52:38.584Z,15.40
2023-04-29T15:55:06.522Z,23.87
2023-04-29T15:57:34.729Z,15.13
2023-04-29T16:00:02.060Z,35.50
2023-04-29T16:02:29.457Z,28.17
2023-04-29T16:04:56.546Z,13.57
2023-04-29T16:07:23.632Z,17.67
2023-04-29T16:09:51.066Z,29.77
2023-04-29T16:12:18.152Z,15.70
2023-04-29T16:14:45.217Z,15.03
2023-04-29T16:17:13.025Z,20.53
2023-04-29T16:19:40.295Z,18.70
2023-04-29T16:22:07.380Z,17.97
2023-04-29T16:24:34.844Z,14.50
2023-04-29T16:27:02.784Z,15.63
2023-04-29T16:29:29.965Z,14.13
2023-04-29T16:31:57.710Z,16.50
2023-04-29T16:34:24.879Z,17.80
2023-04-29T16:36:52.261Z,17.63
2023-04-29T16:39:19.752Z,17.03
2023-04-29T16:41:46.787Z,13.27
2023-04-29T16:44:14.406Z,13.10
2023-04-29T16:46:41.982Z,15.30
2023-04-29T16:49:09.114Z,23.60
2023-04-29T16:51:36.176Z,19.07
2023-04-29T16:54:03.876Z,16.60
2023-04-29T16:56:31.051Z,17.17
2023-04-29T16:58:58.108Z,18.83
2023-04-29T17:01:25.695Z,15.27
2023-04-29T17:03:52.825Z,14.43
2023-04-29T17:06:20.006Z,16.43
2023-04-29T17:08:50.074Z,17.87
2023-04-29T17:11:18.644Z,13.40
2023-04-29T17:13:46.294Z,21.53
2023-04-29T17:16:16.694Z,30.07
2023-04-29T17:18:43.826Z,18.10
2023-04-29T17:21:11.024Z,17.17
2023-04-29T17:23:38.415Z,12.97
2023-04-29T17:26:05.780Z,15.13
2023-04-29T17:28:32.821Z,15.47
2023-04-29T17:31:01.254Z,12.70
2023-04-29T17:33:37.360Z,15.77
2023-04-29T17:36:05.807Z,14.93
2023-04-29T17:38:33.352Z,13.47
2023-04-29T17:41:00.594Z,16.73
2023-04-29T17:43:28.007Z,17.53
2023-04-29T17:45:55.154Z,20.57
2023-04-29T17:48:22.448Z,19.27
2023-04-29T17:50:49.894Z,17.37
2023-04-29T17:53:16.929Z,20.23
2023-04-29T17:55:44.829Z,16.33
2023-04-29T17:58:12.730Z,14.77
2023-04-29T18:00:41.628Z,12.50
2023-04-29T18:03:08.952Z,12.47
2023-04-29T18:05:36.502Z,13.33
2023-04-29T18:08:03.964Z,13.83
2023-04-29T18:10:31.027Z,13.10
2023-04-29T18:12:58.473Z,14.03
2023-04-29T18:15:25.533Z,12.87
2023-04-29T18:17:54.151Z,13.90
2023-04-29T18:20:22.702Z,13.57
2023-04-29T18:22:50.492Z,12.47
2023-04-29T18:25:17.737Z,12.83
2023-04-29T18:27:45.213Z,12.17
2023-04-29T18:30:12.374Z,12.03
2023-04-29T18:32:39.519Z,14.17
2023-04-29T18:35:06.819Z,13.73
2023-04-29T18:37:33.910Z,11.87
2023-04-29T18:40:01.305Z,14.33
2023-04-29T18:42:28.881Z,11.73
2023-04-29T18:44:56.106Z,11.43
2023-04-29T18:47:23.257Z,12.83
2023-04-29T18:49:50.655Z,10.77
2023-04-29T18:52:17.723Z,12.03
2023-04-29T18:54:44.836Z,12.13
2023-04-29T18:57:12.481Z,12.30
2023-04-29T18:59:39.518Z,13.97
2023-04-29T19:02:07.022Z,12.13
2023-04-29T19:04:34.568Z,12.07
2023-04-29T19:07:02.152Z,14.60
2023-04-29T19:09:32.304Z,11.30
2023-04-29T19:12:00.475Z,11.13
2023-04-29T19:14:27.562Z,13.80
2023-04-29T19:16:54.880Z,13.87
2023-04-29T19:19:22.383Z,12.27
2023-04-29T19:21:49.556Z,12.93
2023-04-29T19:24:16.634Z,11.43
2023-04-29T19:26:43.999Z,13.97
2023-04-29T19:29:11.190Z,11.47
2023-04-29T19:31:38.273Z,13.73
2023-04-29T19:34:05.659Z,11.47
2023-04-29T19:36:33.133Z,10.63
2023-04-29T19:39:02.273Z,11.43
2023-04-29T19:41:29.846Z,14.67
2023-04-29T19:43:56.878Z,13.23
2023-04-29T19:46:23.964Z,13.53
2023-04-29T19:48:51.334Z,13.37
2023-04-29T19:51:18.379Z,12.77
2023-04-29T19:53:45.415Z,13.00
2023-04-29T19:56:12.908Z,13.47
2023-04-29T19:58:39.988Z,12.33
2023-04-29T20:01:07.107Z,10.90
2023-04-29T20:03:36.347Z,10.50
2023-04-29T20:06:04.099Z,11.30
2023-04-29T20:08:31.183Z,12.47
2023-04-29T20:10:58.910Z,11.87
2023-04-29T20:13:26.014Z,12.87
2023-04-29T20:15:54.317Z,14.77
2023-04-29T20:18:22.098Z,13.03
2023-04-29T20:20:49.171Z,17.20
2023-04-29T20:23:16.290Z,13.40
2023-04-29T20:25:43.685Z,14.03
2023-04-29T20:28:10.724Z,11.43
2023-04-29T20:30:37.910Z,13.17
2023-04-29T20:33:07.026Z,14.13
2023-04-29T20:35:35.750Z,13.00
2023-04-29T20:38:03.011Z,13.43
2023-04-29T20:40:30.402Z,13.20
2023-04-29T20:42:57.976Z,14.67
2023-04-29T20:45:25.114Z,13.27
2023-04-29T20:47:53.112Z,17.00
2023-04-29T20:50:20.204Z,11.67
2023-04-29T20:52:49.446Z,13.03
2023-04-29T20:55:17.057Z,12.20
2023-04-29T20:57:44.095Z,13.83
2023-04-29T21:00:11.631Z,17.07
2023-04-29T21:02:39.016Z,15.63
2023-04-29T21:05:06.446Z,14.17
2023-04-29T21:07:33.698Z,15.67
2023-04-29T21:10:01.114Z,16.43
2023-04-29T21:12:28.173Z,14.30
2023-04-29T21:14:55.359Z,17.27
2023-04-29T21:17:22.710Z,22.33
2023-04-29T21:19:49.800Z,16.27
2023-04-29T21:22:16.847Z,13.83
2023-04-29T21:24:44.252Z,14.73
2023-04-29T21:27:11.365Z,12.47
2023-04-29T21:29:40.847Z,13.07
2023-04-29T21:32:08.921Z,17.57
2023-04-29T21:34:36.488Z,16.13
2023-04-29T21:37:03.645Z,13.77
2023-04-29T21:39:32.516Z,11.73
2023-04-29T21:42:01.016Z,13.90
2023-04-29T21:44:28.236Z,14.37
2023-04-29T21:46:55.412Z,12.53
2023-04-29T21:49:22.512Z,13.23
2023-04-29T21:51:50.801Z,12.00
2023-04-29T21:54:18.244Z,11.77
2023-04-29T21:56:46.049Z,13.60
2023-04-29T21:59:13.474Z,13.47
2023-04-29T22:01:48.844Z,14.70
2023-04-29T22:04:19.670Z,13.10
2023-04-29T22:06:46.849Z,11.67
2023-04-29T22:09:14.438Z,12.27
2023-04-29T22:11:42.222Z,15.67
2023-04-29T22:14:09.271Z,13.20
2023-04-29T22:16:36.358Z,13.83
2023-04-29T22:19:03.865Z,14.50
2023-04-29T22:21:31.627Z,11.73
2023-04-29T22:23:58.753Z,13.83
2023-04-29T22:26:25.841Z,12.83
2023-04-29T22:28:53.054Z,14.27
2023-04-29T22:31:20.836Z,12.70
2023-04-29T22:33:47.999Z,16.77
2023-04-29T22:36:15.095Z,12.97
2023-04-29T22:38:42.466Z,16.43
2023-04-29T22:41:11.502Z,12.93
2023-04-29T22:43:38.733Z,17.80
2023-04-29T22:46:06.269Z,15.43
2023-04-29T22:48:33.339Z,13.53
2023-04-29T22:51:00.953Z,12.80
2023-04-29T22:53:28.355Z,12.30
2023-04-29T22:55:56.564Z,15.37
2023-04-29T22:58:27.181Z,15.40
2023-04-29T23:00:56.846Z,14.80
2023-04-29T23:03:24.356Z,16.00
2023-04-29T23:05:51.542Z,12.30
2023-04-29T23:08:18.984Z,13.03
2023-04-29T23:10:51.820Z,13.83
2023-04-29T23:13:19.470Z,11.97
2023-04-29T23:15:46.605Z,13.10
2023-04-29T23:18:13.750Z,13.00
2023-04-29T23:20:41.390Z,13.30
2023-04-29T23:23:08.595Z,15.23
2023-04-29T23:25:35.807Z,15.30
2023-04-29T23:28:03.277Z,13.53
2023-04-29T23:30:30.303Z,12.53
2023-04-29T23:32:57.610Z,13.37
2023-04-29T23:35:25.048Z,13.73
2023-04-29T23:37:52.079Z,12.37
2023-04-29T23:40:19.176Z,14.73
2023-04-29T23:42:46.600Z,14.93
2023-04-29T23:45:13.670Z,14.90
2023-04-29T23:47:40.863Z,14.03
2023-04-29T23:50:08.540Z,15.20
2023-04-29T23:52:35.626Z,14.50
2023-04-29T23:55:03.121Z,12.17
2023-04-29T23:57:30.601Z,14.10
2023-04-29T23:59:57.642Z,14.73
